Aeroporto :
LOGIN :

Iscrizione | Disclaimer

   EN    FR    IT 

 










Sommario :    VFR   VFR Marginale   IFR   IFR Intensivo   IFR Molto Intensivo
Visibilità : 
Base nubi : 
>= 8 km
>= 3000ft
5 / 8 km
1000 / 3000 ft
1500m / 5 km
500 / 1000 ft
800 / 1500m
200 / 500 ft
< 800m
< 200 ft
Simboli :   Temporali  Nebbia  Neve Forte  Precipitazioni Forti  Vento > 20 kt
SIGMETs :   Varie  Temporali  Ghiacco  Turbolenza  Onda orograficha  Ceneri Vulcaniche






- Altitudine del aeroporto : 538 ft
- Codice IATA : TNF


LFPN - Toussus Le Noble

ULTIMO METAR :
  • 150730Z AUTO 36009KT 9000 -RA OVC007/// ///TCU 04/03 Q0998 TEMPO 2500 RA BKN007

METARs OBSOLETI :
  • 150700Z AUTO 36008KT 340V040 7000 -RA OVC008/// ///TCU 04/03 Q0998 TEMPO 2500 RA BKN007
  • 150630Z AUTO 35008KT 8000 -RA OVC007/// ///TCU 04/03 Q0997 TEMPO 2500 RA BKN007
  • 150600Z AUTO 36011KT 9000 -RA OVC008/// ///TCU 04/03 Q0997 TEMPO 2500 RA BKN007
  • 150530Z AUTO 36012KT 9000 -RA OVC009/// ///TCU 04/03 Q0997
  • 150500Z AUTO 36010KT 9000 -RA BKN009/// OVC014/// ///TCU 04/03 Q0997

TAF TAF LFPN
Valido dal 15 a 06 ore il 15 a 15 ore UTC


150500Z 1506/1515 01010KT 9999 BKN012
TEMPO 1506/1515 4000 -RA BKN007
PROB40
TEMPO 1506/1512 2500 RA
PROB30
TEMPO 1513/1515 1500 -SNRA BKN004
ATIS : +33 1 39 56 54 70



MetMap, La meteo Aeronautica in un colpo d'occhio ! - Copyright ORBIFLY Dicembre 2007 - Disclaimer

ORBIFLY MET'MAP TEAM :

Programmazione e sviluppo : Alexandra Zaïnal
Concezione e sviluppo : Baudouin d'Aumeries
Co-Programmazione e sviluppo : Marc-Olivier Méhu
Supporto tecnico e logistico : Manuel Goepfert
Aiuto per la traduzione : Arnaldo La Scala

Contatto : metmap@orbifly.com




FONTI E CREDITI :

   NOAA